This is the latest recevied weather packets stored in our database for station/object K2EJ-13. If no packets are shown the sender has not sent any weather packets the latest 10 day(s).
| Time | Temp. | Humidity | Pressure | Rain* | Wind** | Luminosity | Snow |
|---|---|---|---|---|---|---|---|
| 1777950315 | 17.22° C | 71% | 1009.9 hPa | 0 mm | - | - | - |
| 1777947915 | 17.22° C | 70% | 1009.8 hPa | 0 mm | - | - | - |
| 1777945536 | 17.78° C | 67% | 1009.8 hPa | 0 mm | - | - | - |
| 1777940115 | 18.89° C | 59% | 1009.2 hPa | 0 mm | - | - | - |
| 1777939515 | 18.89° C | 59% | 1009.2 hPa | 0 mm | - | - | - |
| 1777932315 | 22.22° C | 40% | 1009.1 hPa | 0 mm | - | - | - |
| 1777931715 | 22.22° C | 39% | 1009.1 hPa | 0 mm | - | - | - |
| 1777931116 | 22.22° C | 38% | 1009.2 hPa | 0 mm | - | - | - |
| 1777929915 | 22.78° C | 38% | 1009.1 hPa | 0 mm | - | - | - |
| 1777928715 | 22.78° C | 37% | 1009.2 hPa | 0 mm | - | - | - |
| 1777927515 | 23.33° C | 38% | 1009.4 hPa | 0 mm | - | - | - |
| 1777925715 | 23.33° C | 36% | 1009.8 hPa | 0 mm | - | - | - |
| 1777924516 | 23.33° C | 36% | 1010.1 hPa | 0 mm | - | - | - |
| 1777923915 | 23.33° C | 36% | 1010.3 hPa | 0 mm | - | - | - |
| 1777921556 | 22.78° C | 37% | 1010.9 hPa | 0 mm | - | - | - |
| 1777920915 | 22.78° C | 38% | 1011.1 hPa | 0 mm | - | - | - |
| 1777917915 | 22.78° C | 37% | 1011.5 hPa | 0 mm | - | - | - |
| 1777911316 | 21.67° C | 40% | 1013 hPa | 0 mm | - | - | - |
| 1777901115 | 17.22° C | 52% | 1014.1 hPa | 0 mm | - | - | - |
| 1777898736 | 16.11° C | 56% | 1014.3 hPa | 0 mm | - | - | - |
| 1777892715 | 7.78° C | 95% | 1014.7 hPa | 0 mm | - | - | - |
| 1777890316 | 6.67° C | 96% | 1014.6 hPa | 0 mm | - | - | - |
| 1777878916 | 6.67° C | 92% | 1014.9 hPa | 0 mm | - | - | - |
| 1777878335 | 6.67° C | 91% | 1014.9 hPa | 0 mm | - | - | - |
| 1777877715 | 6.67° C | 91% | 1014.9 hPa | 0 mm | - | - | - |
* Rain latest hour (hover to see other rain measurements)
** Current wind speed in m/s (hover to see current wind gust speed)